Time;durP1;ratioP1;P1;durP2;ratioP2;P2;SDS_P1;SDS_P2;PMS_P1;PMS_P2;Temp;Humidity;BMP_temperature;BMP_pressure;BME280_temperature;BME280_humidity;BME280_pressure;Samples;Min_cycle;Max_cycle;Signal;HPM_P1;HPM_P2
2021/08/16 00:02:53;;;;;;;50.53;47.33;;;;;;;18.60;100.00;101214.84;1971958;73;31498;-71
2021/08/16 00:08:22;;;;;;;48.17;45.23;;;;;;;18.49;100.00;101230.92;1971682;73;30972;-70
2021/08/16 00:13:47;;;;;;;47.30;44.20;;;;;;;18.46;100.00;101240.02;1971913;73;31487;-74
2021/08/16 00:19:12;;;;;;;47.47;44.43;;;;;;;18.20;100.00;101247.83;1971818;73;30962;-74
2021/08/16 00:24:35;;;;;;;48.33;45.37;;;;;;;18.04;100.00;101252.83;1971856;72;31450;-70
2021/08/16 00:30:00;;;;;;;48.27;45.27;;;;;;;17.95;100.00;101266.86;1971885;73;31080;-70
2021/08/16 00:35:24;;;;;;;45.67;42.87;;;;;;;17.86;100.00;101267.96;1971707;73;31069;-68
2021/08/16 00:40:49;;;;;;;46.93;44.07;;;;;;;17.79;100.00;101278.28;1971915;73;30949;-71
2021/08/16 00:46:37;;;;;;;46.17;43.27;;;;;;;17.69;100.00;101277.14;1971721;73;31092;-74
2021/08/16 00:52:03;;;;;;;46.03;43.30;;;;;;;17.58;100.00;101287.02;1971872;73;31092;-70
2021/08/16 00:57:30;;;;;;;48.43;45.47;;;;;;;17.48;100.00;101286.66;1971870;73;30978;-73
2021/08/16 01:02:55;;;;;;;50.60;47.50;;;;;;;17.41;100.00;101289.68;1971675;73;30976;-70
2021/08/16 01:08:20;;;;;;;50.27;47.23;;;;;;;17.21;100.00;101273.59;1971633;73;31013;-73
2021/08/16 01:13:46;;;;;;;48.77;45.73;;;;;;;17.45;100.00;101295.74;1971874;73;33385;-70
2021/08/16 01:19:11;;;;;;;51.07;48.07;;;;;;;17.27;100.00;101300.98;1971963;73;30963;-71
2021/08/16 01:24:36;;;;;;;49.43;46.50;;;;;;;17.20;100.00;101302.81;1971743;73;31094;-71
2021/08/16 01:30:05;;;;;;;46.87;44.27;;;;;;;17.14;100.00;101305.50;1971727;72;30984;-69
2021/08/16 01:35:30;;;;;;;44.60;42.13;;;;;;;17.16;100.00;101303.77;1971700;73;30986;-70
2021/08/16 01:40:54;;;;;;;44.87;42.37;;;;;;;17.07;100.00;101297.28;1971717;73;32988;-73
2021/08/16 01:46:25;;;;;;;45.23;42.77;;;;;;;17.03;100.00;101304.08;1971925;73;30966;-74
2021/08/16 01:51:50;;;;;;;44.87;42.30;;;;;;;17.10;100.00;101294.66;1971816;73;33434;-73
2021/08/16 01:57:16;;;;;;;45.17;42.67;;;;;;;17.12;100.00;101302.17;1971898;73;32925;-70
2021/08/16 02:02:41;;;;;;;45.73;43.23;;;;;;;17.00;100.00;101300.51;1971839;73;33389;-70
2021/08/16 02:08:07;;;;;;;43.97;41.67;;;;;;;16.90;100.00;101323.19;1971648;73;30979;-70
2021/08/16 02:13:32;;;;;;;46.27;43.50;;;;;;;16.97;100.00;101313.78;1971814;73;33405;-70
2021/08/16 02:18:57;;;;;;;45.77;43.03;;;;;;;16.89;100.00;101306.69;1971682;73;31051;-70
2021/08/16 02:24:22;;;;;;;42.10;39.73;;;;;;;16.84;100.00;101314.65;1971691;73;32926;-74
2021/08/16 02:29:46;;;;;;;42.40;39.90;;;;;;;16.90;100.00;101320.98;1971867;73;33449;-74
2021/08/16 02:35:13;;;;;;;44.20;41.60;;;;;;;16.88;100.00;101333.08;1971710;73;30970;-71
2021/08/16 02:40:38;;;;;;;44.13;41.43;;;;;;;16.84;100.00;101333.72;1971650;73;33102;-70
2021/08/16 02:46:03;;;;;;;44.07;41.30;;;;;;;16.83;100.00;101342.44;1971684;73;31035;-73
2021/08/16 02:51:27;;;;;;;43.50;40.57;;;;;;;16.62;100.00;101350.48;1971598;73;33234;-71
2021/08/16 02:56:52;;;;;;;46.17;43.37;;;;;;;16.54;100.00;101361.02;1971850;73;33031;-73
2021/08/16 03:02:16;;;;;;;44.60;42.00;;;;;;;16.44;100.00;101367.39;1971834;73;33419;-73
2021/08/16 03:07:41;;;;;;;44.03;41.23;;;;;;;16.31;100.00;101359.23;1971854;73;33587;-73
2021/08/16 03:13:08;;;;;;;44.30;41.33;;;;;;;16.17;100.00;101383.05;1971809;73;33363;-70
2021/08/16 03:18:33;;;;;;;44.33;41.10;;;;;;;16.10;100.00;101385.44;1971678;73;32944;-70
2021/08/16 03:23:58;;;;;;;45.23;42.23;;;;;;;15.97;100.00;101387.65;1971743;73;32899;-74
2021/08/16 03:29:42;;;;;;;46.00;43.10;;;;;;;15.81;100.00;101387.67;2016053;71;32877;-72
2021/08/16 03:35:11;;;;;;;46.30;43.30;;;;;;;15.80;100.00;101383.20;1971613;73;33182;-70
2021/08/16 03:40:37;;;;;;;46.20;43.07;;;;;;;15.72;100.00;101393.14;1971688;73;33016;-70
2021/08/16 03:46:02;;;;;;;44.93;41.73;;;;;;;15.65;100.00;101388.52;1971849;72;33475;-70
2021/08/16 03:51:27;;;;;;;45.90;42.97;;;;;;;15.53;100.00;101389.56;1971667;73;32933;-74
2021/08/16 03:56:51;;;;;;;46.97;43.87;;;;;;;15.44;100.00;101402.56;1971802;73;33474;-74
2021/08/16 04:02:16;;;;;;;47.63;44.37;;;;;;;15.32;100.00;101410.56;1872709;73;39538;-70
2021/08/16 04:07:41;;;;;;;47.73;44.53;;;;;;;15.32;100.00;101410.00;1971812;73;33455;-73
2021/08/16 04:13:07;;;;;;;45.57;42.47;;;;;;;15.15;100.00;101412.49;1971650;73;33012;-73
2021/08/16 04:18:36;;;;;;;46.47;43.27;;;;;;;15.21;100.00;101425.86;1971621;73;32945;-70
2021/08/16 04:24:01;;;;;;;47.80;44.40;;;;;;;15.22;100.00;101435.92;1971645;73;32911;-73
2021/08/16 04:29:26;;;;;;;47.20;44.10;;;;;;;15.01;100.00;101437.62;1971822;73;32946;-73
2021/08/16 04:34:51;;;;;;;47.20;43.93;;;;;;;15.04;100.00;101451.56;1971803;73;32998;-70
2021/08/16 04:40:17;;;;;;;47.97;44.70;;;;;;;15.00;100.00;101456.09;1971669;73;32973;-73
2021/08/16 04:45:41;;;;;;;47.47;44.23;;;;;;;14.81;100.00;101461.64;1971685;73;32905;-73
2021/08/16 04:51:06;;;;;;;49.30;46.00;;;;;;;14.89;100.00;101466.56;1971611;73;32901;-70
2021/08/16 04:56:33;;;;;;;46.33;43.13;;;;;;;14.89;100.00;101465.17;1971730;73;33017;-70
2021/08/16 05:01:58;;;;;;;47.03;43.67;;;;;;;14.81;100.00;101468.63;1971839;73;33516;-73
2021/08/16 05:07:23;;;;;;;47.50;44.30;;;;;;;14.68;100.00;101465.72;1971957;73;33463;-70
2021/08/16 05:12:48;;;;;;;48.60;45.20;;;;;;;14.59;100.00;101469.16;1971951;73;33450;-71
2021/08/16 05:18:14;;;;;;;51.37;48.07;;;;;;;14.70;100.00;101474.66;1971692;72;32979;-70
2021/08/16 05:23:37;;;;;;;53.87;50.37;;;;;;;14.69;100.00;101472.98;1971786;73;33081;-74
2021/08/16 05:29:01;;;;;;;54.87;51.17;;;;;;;14.78;100.00;101487.41;1971692;73;32892;-70
2021/08/16 05:34:26;;;;;;;54.07;50.47;;;;;;;14.76;100.00;101499.45;1971872;73;32911;-72
2021/08/16 05:39:50;;;;;;;56.17;52.87;;;;;;;14.75;100.00;101503.97;1971675;72;32944;-70
2021/08/16 05:45:34;;;;;;;54.13;50.53;;;;;;;14.89;100.00;101500.13;2015952;71;32942;-70
2021/08/16 05:50:59;;;;;;;54.17;50.57;;;;;;;14.72;100.00;101506.77;1971682;73;32872;-70
2021/08/16 05:56:24;;;;;;;55.03;51.03;;;;;;;14.81;100.00;101527.37;1971639;73;32944;-73
2021/08/16 06:01:48;;;;;;;55.20;51.60;;;;;;;14.76;100.00;101532.20;1971926;73;33453;-72
2021/08/16 06:07:13;;;;;;;55.30;51.60;;;;;;;14.79;100.00;101537.20;1971677;72;33040;-72
2021/08/16 06:12:37;;;;;;;53.50;50.00;;;;;;;14.88;100.00;101535.42;1971918;73;32900;-70
2021/08/16 06:18:03;;;;;;;55.70;51.83;;;;;;;14.95;100.00;101547.08;1971829;73;33439;-70
2021/08/16 06:23:28;;;;;;;54.10;50.37;;;;;;;15.09;100.00;101553.63;1971675;73;32903;-71
2021/08/16 06:28:52;;;;;;;54.73;50.77;;;;;;;15.05;100.00;101558.16;1971684;73;32890;-72
2021/08/16 06:34:17;;;;;;;53.67;49.93;;;;;;;15.07;100.00;101561.48;1971862;73;32898;-74
2021/08/16 06:39:42;;;;;;;55.10;51.33;;;;;;;15.12;100.00;101567.02;1971815;73;32926;-75
2021/08/16 06:45:09;;;;;;;54.70;51.00;;;;;;;15.17;100.00;101575.36;1971777;72;32885;-75
2021/08/16 06:50:34;;;;;;;55.27;51.27;;;;;;;15.25;100.00;101579.45;1971676;73;32912;-74
2021/08/16 06:55:59;;;;;;;53.90;49.77;;;;;;;15.29;100.00;101582.76;1971686;73;32905;-73
2021/08/16 07:01:25;;;;;;;55.50;51.50;;;;;;;15.44;100.00;101578.38;1971836;73;33345;-73
2021/08/16 07:06:50;;;;;;;53.30;49.50;;;;;;;15.65;100.00;101580.93;1971954;73;33026;-75
2021/08/16 07:12:15;;;;;;;52.77;48.97;;;;;;;15.89;100.00;101585.32;1971672;72;33036;-70
2021/08/16 07:17:39;;;;;;;50.63;46.97;;;;;;;15.87;100.00;101584.78;1971765;72;32895;-71
2021/08/16 07:23:05;;;;;;;49.77;45.97;;;;;;;16.01;100.00;101583.45;1937006;74;32984;-78
2021/08/16 07:28:31;;;;;;;48.27;44.67;;;;;;;16.13;100.00;101597.83;1971958;73;33414;-74
2021/08/16 07:33:57;;;;;;;50.47;46.47;;;;;;;16.17;100.00;101594.69;1971685;73;32922;-72
2021/08/16 07:39:21;;;;;;;50.23;46.23;;;;;;;16.41;100.00;101605.80;1971663;72;32976;-72
2021/08/16 07:44:46;;;;;;;47.07;43.50;;;;;;;16.48;100.00;101615.21;1971692;73;32975;-72
2021/08/16 07:50:12;;;;;;;51.47;47.17;;;;;;;16.61;100.00;101606.05;1971624;73;33098;-72
2021/08/16 07:55:38;;;;;;;49.30;44.93;;;;;;;16.52;100.00;101617.10;1971797;73;32969;-74
2021/08/16 08:01:03;;;;;;;51.93;47.73;;;;;;;16.53;100.00;101623.55;1971699;73;32915;-73
2021/08/16 08:06:28;;;;;;;50.23;46.33;;;;;;;16.62;100.00;101622.58;1971655;73;32997;-71
2021/08/16 08:11:55;;;;;;;49.83;45.83;;;;;;;17.12;100.00;101612.95;1971640;73;32914;-71
2021/08/16 08:17:26;;;;;;;48.97;45.20;;;;;;;17.37;100.00;101602.60;1971878;73;33519;-74
2021/08/16 08:22:50;;;;;;;47.97;43.90;;;;;;;17.83;100.00;101619.92;1959793;71;31125;-74
2021/08/16 08:28:15;;;;;;;45.80;42.23;;;;;;;18.05;100.00;101619.41;1971892;73;31462;-70
2021/08/16 08:33:41;;;;;;;45.93;42.13;;;;;;;18.37;100.00;101610.47;1971821;73;33636;-72
2021/08/16 08:39:27;;;;;;;46.10;42.40;;;;;;;18.19;100.00;101620.17;2015921;71;30881;-71
2021/08/16 08:44:55;;;;;;;49.23;45.00;;;;;;;17.98;100.00;101636.44;1971845;73;31559;-70
2021/08/16 08:50:23;;;;;;;52.07;47.67;;;;;;;18.07;100.00;101633.97;1971761;73;33484;-71
2021/08/16 08:55:50;;;;;;;50.80;46.70;;;;;;;18.15;100.00;101639.41;1971652;73;30956;-74
2021/08/16 09:01:15;;;;;;;48.10;44.10;;;;;;;18.25;100.00;101647.61;1971859;73;31489;-70
2021/08/16 09:06:47;;;;;;;47.40;43.70;;;;;;;18.06;100.00;101656.77;1971707;73;31138;-74
2021/08/16 09:12:12;;;;;;;45.13;41.20;;;;;;;18.41;100.00;101659.33;1971835;73;31049;-71
2021/08/16 09:17:42;;;;;;;45.70;42.03;;;;;;;18.49;100.00;101649.55;1971856;73;31056;-74
2021/08/16 09:23:14;;;;;;;45.00;41.00;;;;;;;18.78;100.00;101648.31;2069694;69;30894;-71
2021/08/16 09:28:43;;;;;;;45.90;41.93;;;;;;;18.98;100.00;101651.98;1971707;73;31040;-71
2021/08/16 09:34:09;;;;;;;40.53;37.13;;;;;;;19.43;100.00;101649.91;1971677;73;31016;-71
2021/08/16 09:39:36;;;;;;;40.60;37.10;;;;;;;19.15;100.00;101652.09;1971632;73;30972;-74
2021/08/16 09:45:01;;;;;;;41.27;37.67;;;;;;;19.08;100.00;101661.59;1971782;73;33415;-73
2021/08/16 09:50:42;;;;;;;41.03;37.37;;;;;;;18.89;100.00;101682.07;1971848;73;33406;-73
2021/08/16 09:56:07;;;;;;;38.30;35.20;;;;;;;19.17;100.00;101675.72;1971701;73;30960;-73
2021/08/16 10:01:32;;;;;;;38.37;35.17;;;;;;;19.20;100.00;101692.80;1971723;73;30974;-71
2021/08/16 10:07:00;;;;;;;37.57;34.47;;;;;;;19.53;100.00;101694.14;1971679;73;30942;-72
2021/08/16 10:12:26;;;;;;;36.57;33.27;;;;;;;19.65;100.00;101688.45;1971840;73;30999;-71
2021/08/16 10:17:52;;;;;;;37.57;34.23;;;;;;;19.66;100.00;101698.59;1971655;73;31078;-69
2021/08/16 10:23:19;;;;;;;38.10;34.97;;;;;;;19.83;100.00;101702.88;1971612;73;30995;-74
2021/08/16 10:28:48;;;;;;;36.67;33.47;;;;;;;20.06;100.00;101695.98;1971854;73;31453;-73
2021/08/16 10:31:23;;;;;;;35.60;32.47;;;;;;;19.85;100.00;101697.14;1933892;74;26598;-73
2021/08/16 10:37:00;;;;;;;34.90;32.07;;;;;;;19.84;100.00;101713.84;1971692;73;31147;-69
2021/08/16 10:42:37;;;;;;;34.27;31.37;;;;;;;19.62;100.00;101711.66;1971853;72;33393;-74
2021/08/16 10:48:05;;;;;;;34.67;31.60;;;;;;;19.41;100.00;101713.62;1971877;73;30933;-74
2021/08/16 10:53:31;;;;;;;34.03;31.23;;;;;;;19.46;100.00;101712.69;1971649;73;30932;-74
2021/08/16 10:58:57;;;;;;;33.27;30.57;;;;;;;19.41;100.00;101718.42;1971868;73;31420;-72
2021/08/16 11:04:33;;;;;;;36.37;33.07;;;;;;;19.29;100.00;101744.39;1971661;73;30929;-69
2021/08/16 11:10:01;;;;;;;36.20;32.93;;;;;;;19.44;100.00;101748.80;1971997;73;31510;-74
2021/08/16 11:15:35;;;;;;;34.30;31.30;;;;;;;19.47;100.00;101747.56;1971651;73;30916;-72
2021/08/16 11:21:08;;;;;;;33.90;31.00;;;;;;;19.36;100.00;101752.37;1968630;71;31430;-71
2021/08/16 11:26:33;;;;;;;35.20;32.27;;;;;;;19.19;100.00;101759.30;1971681;73;30931;-72
2021/08/16 11:32:02;;;;;;;34.83;31.73;;;;;;;19.19;100.00;101754.50;1971657;73;30935;-72
2021/08/16 11:37:29;;;;;;;33.47;30.57;;;;;;;19.05;100.00;101767.24;1971767;72;30953;-72
2021/08/16 11:42:55;;;;;;;32.80;30.00;;;;;;;19.17;100.00;101768.66;1971695;73;31000;-74
2021/08/16 11:48:25;;;;;;;31.00;28.37;;;;;;;19.31;100.00;101764.60;1971650;73;30938;-71
2021/08/16 11:53:53;;;;;;;31.90;29.13;;;;;;;19.34;100.00;101759.72;1971662;73;30942;-72
2021/08/16 11:59:17;;;;;;;31.40;29.00;;;;;;;19.59;100.00;101763.90;1971747;73;31055;-69
2021/08/16 12:04:45;;;;;;;33.77;31.17;;;;;;;19.49;100.00;101772.62;1971871;73;33443;-76
2021/08/16 12:10:18;;;;;;;31.40;29.00;;;;;;;19.54;100.00;101767.69;1971828;73;31040;-76
2021/08/16 12:15:54;;;;;;;30.73;28.07;;;;;;;19.72;100.00;101770.59;1971920;73;31382;-73
2021/08/16 12:21:27;;;;;;;31.23;28.43;;;;;;;19.64;100.00;101784.07;1966996;71;31048;-71
2021/08/16 12:26:59;;;;;;;31.93;29.33;;;;;;;19.21;100.00;101792.22;1971842;73;30934;-74
2021/08/16 12:32:27;;;;;;;29.70;27.23;;;;;;;19.08;100.00;101806.63;1971912;73;31000;-74
2021/08/16 12:37:56;;;;;;;29.53;27.17;;;;;;;19.08;100.00;101816.48;1971866;73;31508;-74
2021/08/16 12:43:19;;;;;;;31.43;28.73;;;;;;;19.23;100.00;101814.68;1971690;73;31030;-74
2021/08/16 12:49:09;;;;;;;30.27;27.57;;;;;;;19.48;100.00;101821.09;2015961;71;31342;-75
2021/08/16 12:54:35;;;;;;;27.70;25.50;;;;;;;19.69;100.00;101823.37;1971704;73;31035;-72
2021/08/16 13:00:00;;;;;;;28.30;25.90;;;;;;;19.96;100.00;101825.44;1971631;73;30973;-75
2021/08/16 13:05:25;;;;;;;26.37;24.37;;;;;;;20.13;100.00;101824.67;1971797;73;33355;-75
2021/08/16 13:10:49;;;;;;;24.90;23.10;;;;;;;19.91;100.00;101822.75;1971894;73;31053;-72
2021/08/16 13:16:14;;;;;;;25.27;23.43;;;;;;;19.75;100.00;101828.56;1971872;73;31433;-75
2021/08/16 13:21:39;;;;;;;26.27;24.13;;;;;;;19.69;100.00;101838.30;1957828;73;31437;-72
2021/08/16 13:27:04;;;;;;;24.97;22.87;;;;;;;20.12;100.00;101824.98;1971854;73;31441;-74
2021/08/16 13:32:29;;;;;;;25.43;23.37;;;;;;;20.47;100.00;101825.97;1971765;73;31076;-75
2021/08/16 13:37:54;;;;;;;25.83;23.70;;;;;;;20.59;100.00;101810.63;1971674;73;31054;-75
2021/08/16 13:43:19;;;;;;;23.63;21.73;;;;;;;20.38;100.00;101810.42;1971893;73;31465;-75
2021/08/16 13:48:46;;;;;;;22.63;20.73;;;;;;;20.10;100.00;101794.30;1971663;73;31027;-72
2021/08/16 13:54:11;;;;;;;23.10;21.40;;;;;;;20.03;100.00;101803.80;1971848;73;31561;-72
2021/08/16 13:59:36;;;;;;;22.50;20.33;;;;;;;20.17;100.00;101813.56;1971700;73;30970;-72
2021/08/16 14:05:01;;;;;;;21.97;20.23;;;;;;;20.18;100.00;101837.80;1971725;73;31050;-74
2021/08/16 14:10:26;;;;;;;22.50;20.77;;;;;;;20.26;100.00;101835.59;1971931;73;31111;-74
2021/08/16 14:15:53;;;;;;;23.40;21.43;;;;;;;20.18;100.00;101847.10;1971669;73;31061;-71
2021/08/16 14:21:17;;;;;;;23.10;21.20;;;;;;;19.90;100.00;101855.49;1962074;73;31063;-73
2021/08/16 14:26:42;;;;;;;22.83;20.90;;;;;;;19.81;100.00;101841.34;1971815;73;31035;-74
2021/08/16 14:32:10;;;;;;;22.17;20.37;;;;;;;19.89;100.00;101850.46;1971647;73;31030;-71
2021/08/16 14:37:35;;;;;;;22.23;20.53;;;;;;;20.05;100.00;101857.08;1971705;72;31019;-74
2021/08/16 14:43:01;;;;;;;22.23;20.43;;;;;;;20.23;100.00;101846.96;1971854;73;31437;-74
2021/08/16 14:48:25;;;;;;;21.37;19.73;;;;;;;20.23;100.00;101868.13;1971759;73;30978;-72
2021/08/16 14:53:50;;;;;;;20.20;18.57;;;;;;;20.21;100.00;101873.82;1971727;73;31034;-73
2021/08/16 14:59:15;;;;;;;20.20;18.50;;;;;;;20.31;100.00;101882.88;1971755;73;31001;-73
2021/08/16 15:04:40;;;;;;;20.47;18.73;;;;;;;20.43;100.00;101874.61;1971892;73;31522;-73
2021/08/16 15:10:06;;;;;;;20.53;18.80;;;;;;;20.59;100.00;101876.97;1971912;73;31051;-68
2021/08/16 15:15:31;;;;;;;24.50;22.07;;;;;;;21.06;100.00;101884.53;1971985;73;31508;-71
2021/08/16 15:20:56;;;;;;;21.50;19.70;;;;;;;20.70;100.00;101886.24;1969556;71;31114;-70
2021/08/16 15:26:24;;;;;;;21.57;19.97;;;;;;;20.18;100.00;101898.46;1971939;73;30999;-68
2021/08/16 15:31:52;;;;;;;21.47;19.70;;;;;;;20.06;100.00;101908.11;1971701;73;31040;-68
2021/08/16 15:37:17;;;;;;;20.93;19.47;;;;;;;19.99;100.00;101906.57;1971677;73;31060;-69
2021/08/16 15:42:43;;;;;;;19.53;17.93;;;;;;;19.90;100.00;101911.33;1971855;73;33477;-73
2021/08/16 15:48:09;;;;;;;18.03;16.70;;;;;;;19.68;100.00;101907.11;1971861;73;30962;-72
2021/08/16 15:53:36;;;;;;;25.40;23.70;;;;;;;19.40;100.00;101931.74;1971942;73;31667;-72
2021/08/16 15:59:01;;;;;;;19.10;17.80;;;;;;;19.32;100.00;101930.26;1971659;73;31156;-73
2021/08/16 16:04:26;;;;;;;21.77;20.47;;;;;;;19.62;100.00;101930.12;1972072;73;31785;-70
2021/08/16 16:09:52;;;;;;;17.33;16.13;;;;;;;19.39;100.00;101932.05;1971746;72;30970;-71
2021/08/16 16:15:23;;;;;;;18.30;16.93;;;;;;;19.54;100.00;101920.45;1971879;73;30994;-71
2021/08/16 16:20:48;;;;;;;17.67;16.47;;;;;;;19.59;100.00;101927.38;1971874;73;31531;-73
2021/08/16 16:26:12;;;;;;;16.83;15.73;;;;;;;19.71;100.00;101922.56;1971664;73;31047;-70
2021/08/16 16:31:44;;;;;;;16.43;15.43;;;;;;;19.72;100.00;101904.50;1971749;73;31172;-71
2021/08/16 16:37:12;;;;;;;15.87;14.97;;;;;;;19.96;100.00;101913.44;1971805;72;31085;-72
2021/08/16 16:42:38;;;;;;;16.60;15.57;;;;;;;19.89;100.00;101906.86;1971829;73;31547;-72
2021/08/16 16:48:09;;;;;;;16.40;15.00;;;;;;;20.02;100.00;101919.22;1971899;73;31555;-69
2021/08/16 16:53:34;;;;;;;17.77;16.27;;;;;;;19.72;100.00;101915.78;1971892;73;31068;-70
2021/08/16 16:59:00;;;;;;;17.03;15.73;;;;;;;19.70;100.00;101916.09;1971882;73;31543;-73
2021/08/16 17:04:25;;;;;;;17.37;16.00;;;;;;;19.65;100.00;101914.80;1929639;72;31718;-74
2021/08/16 17:09:49;;;;;;;16.13;14.93;;;;;;;19.62;100.00;101923.91;1971610;73;33441;-73
2021/08/16 17:15:15;;;;;;;15.50;14.50;;;;;;;19.66;100.00;101924.10;1971729;73;33486;-72
2021/08/16 17:20:40;;;;;;;15.70;14.70;;;;;;;19.88;100.00;101929.73;1969693;73;31580;-72
2021/08/16 17:26:06;;;;;;;14.90;13.80;;;;;;;19.90;100.00;101927.41;1971520;73;31026;-74
2021/08/16 17:31:31;;;;;;;15.43;14.23;;;;;;;19.75;100.00;101938.52;1971534;73;31035;-73
2021/08/16 17:36:58;;;;;;;14.83;13.83;;;;;;;19.72;100.00;101945.39;1971463;73;30978;-72
2021/08/16 17:42:23;;;;;;;15.40;14.30;;;;;;;19.47;100.00;101941.18;1971518;73;30975;-75
2021/08/16 17:47:48;;;;;;;15.67;14.57;;;;;;;19.53;100.00;101954.02;1971647;72;31556;-75
2021/08/16 17:53:12;;;;;;;15.60;14.23;;;;;;;19.60;100.00;101951.58;1971810;73;30972;-75
2021/08/16 17:58:38;;;;;;;14.97;13.97;;;;;;;20.60;100.00;101949.22;1971620;73;30977;-76
2021/08/16 18:04:04;;;;;;;15.27;14.17;;;;;;;19.62;100.00;101959.15;1971734;73;33411;-75
2021/08/16 18:09:29;;;;;;;16.37;15.07;;;;;;;19.42;100.00;101969.48;1971479;72;31060;-72
2021/08/16 18:14:54;;;;;;;15.67;14.60;;;;;;;19.21;100.00;101971.91;1971710;72;33398;-74
2021/08/16 18:20:19;;;;;;;17.17;15.67;;;;;;;19.10;100.00;101971.31;1971667;73;31499;-71
2021/08/16 18:25:45;;;;;;;16.33;15.10;;;;;;;19.09;100.00;101971.05;1971479;73;31020;-72
2021/08/16 18:31:11;;;;;;;16.60;15.40;;;;;;;19.00;100.00;101971.53;1971651;73;31538;-72
2021/08/16 18:36:42;;;;;;;17.43;16.10;;;;;;;18.87;100.00;101975.79;1971690;73;31526;-77
2021/08/16 18:42:26;;;;;;;16.97;15.70;;;;;;;18.76;100.00;101979.95;2015722;71;31410;-73
2021/08/16 18:47:50;;;;;;;19.20;17.80;;;;;;;18.73;100.00;101981.99;1971663;73;31076;-76
2021/08/16 18:53:34;;;;;;;16.10;14.93;;;;;;;18.66;100.00;101983.80;2015795;71;30967;-73
2021/08/16 18:59:19;;;;;;;16.03;14.93;;;;;;;18.63;100.00;101996.52;2015651;71;30874;-73
2021/08/16 19:04:44;;;;;;;20.57;19.00;;;;;;;18.46;100.00;102001.89;1971540;73;30979;-75
2021/08/16 19:10:12;;;;;;;17.67;16.50;;;;;;;17.96;100.00;102013.49;1971686;73;31475;-70
2021/08/16 19:15:44;;;;;;;18.33;17.17;;;;;;;18.20;100.00;101999.28;1971463;73;31142;-72
2021/08/16 19:21:10;;;;;;;17.47;16.20;;;;;;;18.13;100.00;102014.33;1971544;73;31138;-70
2021/08/16 19:26:35;;;;;;;17.07;15.87;;;;;;;18.34;100.00;102007.76;1971688;73;33503;-72
2021/08/16 19:31:59;;;;;;;16.87;15.87;;;;;;;18.22;100.00;102018.11;1971496;72;31132;-74
2021/08/16 19:37:25;;;;;;;17.57;16.57;;;;;;;18.19;100.00;102022.92;1971658;73;30965;-75
2021/08/16 19:42:53;;;;;;;18.23;16.93;;;;;;;18.08;100.00;102034.09;1971542;73;30988;-69
2021/08/16 19:48:17;;;;;;;17.80;16.70;;;;;;;18.09;100.00;102038.58;1971652;73;31551;-76
2021/08/16 19:53:42;;;;;;;17.17;16.10;;;;;;;18.05;100.00;102043.16;1971661;73;31700;-74
2021/08/16 19:59:12;;;;;;;16.20;15.07;;;;;;;17.87;100.00;102053.84;1971700;73;31566;-73
2021/08/16 20:04:37;;;;;;;16.70;15.70;;;;;;;17.91;100.00;102052.92;1971639;73;33509;-72
2021/08/16 20:10:22;;;;;;;16.07;14.97;;;;;;;17.79;100.00;102064.37;2015685;71;30959;-72
2021/08/16 20:15:48;;;;;;;16.67;15.57;;;;;;;17.73;100.00;102070.63;1971820;73;31429;-71
2021/08/16 20:21:14;;;;;;;17.23;16.13;;;;;;;17.63;100.00;102070.77;1963197;73;31520;-69
2021/08/16 20:26:39;;;;;;;17.60;16.37;;;;;;;17.55;100.00;102075.63;1971605;73;33014;-74
2021/08/16 20:32:04;;;;;;;18.97;17.70;;;;;;;17.41;100.00;102090.17;1971849;72;31445;-73
2021/08/16 20:37:32;;;;;;;19.70;18.30;;;;;;;17.38;100.00;102092.16;1971862;73;33523;-74
2021/08/16 20:42:56;;;;;;;20.13;18.73;;;;;;;17.35;100.00;102087.16;1971742;73;31111;-66
2021/08/16 20:48:21;;;;;;;19.70;18.50;;;;;;;17.22;100.00;102095.73;1971606;73;33059;-74
2021/08/16 20:53:45;;;;;;;21.50;19.90;;;;;;;17.14;100.00;102097.24;1971588;73;33475;-69
2021/08/16 20:59:10;;;;;;;21.87;20.43;;;;;;;17.12;100.00;102087.42;1971591;73;33534;-69
2021/08/16 21:04:35;;;;;;;23.17;21.77;;;;;;;17.11;100.00;102085.22;1971922;73;33404;-73
2021/08/16 21:10:00;;;;;;;23.20;21.80;;;;;;;17.01;100.00;102093.75;1971532;72;31124;-73
2021/08/16 21:15:25;;;;;;;26.53;24.70;;;;;;;16.88;100.00;102095.86;1971521;73;31039;-68
2021/08/16 21:21:10;;;;;;;26.40;24.70;;;;;;;16.80;100.00;102099.31;2002482;71;31056;-69
2021/08/16 21:26:35;;;;;;;26.40;24.80;;;;;;;16.75;100.00;102097.96;1971826;73;33061;-68
2021/08/16 21:32:00;;;;;;;26.40;24.67;;;;;;;16.74;100.00;102101.89;1971809;73;31542;-71
2021/08/16 21:37:25;;;;;;;27.23;25.53;;;;;;;16.32;100.00;102107.59;1971834;73;32985;-74
2021/08/16 21:42:51;;;;;;;27.97;26.17;;;;;;;16.45;100.00;102110.84;1971804;73;33374;-74
2021/08/16 21:48:16;;;;;;;27.70;25.70;;;;;;;16.58;100.00;102106.83;1971648;73;32886;-76
2021/08/16 21:54:02;;;;;;;28.40;26.60;;;;;;;16.09;100.00;102116.73;2015575;71;32927;-74
2021/08/16 21:59:26;;;;;;;31.13;28.90;;;;;;;15.84;100.00;102127.55;1971683;72;33436;-72
2021/08/16 22:05:13;;;;;;;31.43;29.43;;;;;;;15.80;100.00;102125.06;2015952;71;30847;-73
2021/08/16 22:10:39;;;;;;;33.27;30.97;;;;;;;15.73;100.00;102132.11;1971435;73;32960;-70
2021/08/16 22:16:06;;;;;;;33.17;31.13;;;;;;;15.68;100.00;102135.78;1971472;73;33061;-74
2021/08/16 22:21:31;;;;;;;33.73;31.43;;;;;;;15.65;100.00;102136.92;1959355;73;33532;-72
2021/08/16 22:26:56;;;;;;;35.37;32.93;;;;;;;15.63;100.00;102141.41;1971495;73;33024;-74
2021/08/16 22:32:20;;;;;;;34.93;32.53;;;;;;;15.67;100.00;102147.27;1971559;73;32987;-74
2021/08/16 22:37:45;;;;;;;36.73;34.17;;;;;;;15.83;100.00;102142.69;1971574;73;33048;-71
2021/08/16 22:43:09;;;;;;;35.23;32.93;;;;;;;15.83;100.00;102146.08;1971812;73;32957;-74
2021/08/16 22:48:34;;;;;;;38.13;35.67;;;;;;;15.55;100.00;102149.56;1971866;73;33381;-74
2021/08/16 22:53:59;;;;;;;38.30;35.50;;;;;;;15.76;100.00;102140.77;1971675;73;33523;-74
2021/08/16 22:59:24;;;;;;;39.20;36.60;;;;;;;15.73;100.00;102139.13;1971574;73;32894;-71
2021/08/16 23:04:48;;;;;;;40.57;37.97;;;;;;;15.79;100.00;102142.15;1971413;73;32986;-71
2021/08/16 23:10:13;;;;;;;40.70;37.90;;;;;;;15.69;100.00;102152.03;1971602;73;33085;-74
2021/08/16 23:15:39;;;;;;;42.37;39.67;;;;;;;15.41;100.00;102145.95;1972002;73;33199;-71
2021/08/16 23:21:03;;;;;;;43.17;40.27;;;;;;;15.62;100.00;102141.68;1971625;73;32968;-71
2021/08/16 23:26:28;;;;;;;42.37;39.50;;;;;;;15.58;100.00;102141.42;1971452;73;32994;-74
2021/08/16 23:31:52;;;;;;;43.20;40.27;;;;;;;15.55;100.00;102148.17;1971640;73;33480;-71
2021/08/16 23:37:17;;;;;;;43.80;41.03;;;;;;;15.49;100.00;102154.31;1971568;73;33535;-73
2021/08/16 23:42:42;;;;;;;44.40;41.60;;;;;;;15.51;100.00;102160.52;1971490;73;33439;-74
2021/08/16 23:48:10;;;;;;;43.87;41.27;;;;;;;15.40;100.00;102151.86;1971397;73;32994;-74
2021/08/16 23:53:34;;;;;;;44.00;41.20;;;;;;;15.33;100.00;102152.14;1971396;73;32976;-74
2021/08/16 23:59:00;;;;;;;45.83;43.10;;;;;;;15.25;100.00;102163.09;1971510;73;32918;-71
